sensor_id;sensor_type;location;lat;lon;timestamp;temperature;humidity
16625;DHT22;8426;48.496;9.098;2023-02-23T00:03:10;7.00;99.90
16625;DHT22;8426;48.496;9.098;2023-02-23T00:08:15;7.00;99.90
16625;DHT22;8426;48.496;9.098;2023-02-23T00:13:18;7.00;99.90
16625;DHT22;8426;48.496;9.098;2023-02-23T00:18:23;6.90;99.90
16625;DHT22;8426;48.496;9.098;2023-02-23T00:23:31;6.90;99.90
16625;DHT22;8426;48.496;9.098;2023-02-23T00:28:34;6.80;99.90
16625;DHT22;8426;48.496;9.098;2023-02-23T00:33:39;6.70;99.90
16625;DHT22;8426;48.496;9.098;2023-02-23T00:38:43;6.60;99.90
16625;DHT22;8426;48.496;9.098;2023-02-23T00:43:47;6.60;99.90
16625;DHT22;8426;48.496;9.098;2023-02-23T00:48:54;6.70;99.90
16625;DHT22;8426;48.496;9.098;2023-02-23T00:53:59;6.70;99.90
16625;DHT22;8426;48.496;9.098;2023-02-23T00:59:10;6.70;99.90
16625;DHT22;8426;48.496;9.098;2023-02-23T01:04:16;6.80;99.90
16625;DHT22;8426;48.496;9.098;2023-02-23T01:09:21;6.80;99.90
16625;DHT22;8426;48.496;9.098;2023-02-23T01:14:30;6.80;99.90
16625;DHT22;8426;48.496;9.098;2023-02-23T01:19:38;6.80;99.90
16625;DHT22;8426;48.496;9.098;2023-02-23T01:24:49;6.80;99.90
16625;DHT22;8426;48.496;9.098;2023-02-23T01:29:53;6.70;99.90
16625;DHT22;8426;48.496;9.098;2023-02-23T01:34:57;6.70;99.90
16625;DHT22;8426;48.496;9.098;2023-02-23T01:40:12;6.60;99.90
16625;DHT22;8426;48.496;9.098;2023-02-23T01:45:22;6.60;99.90
16625;DHT22;8426;48.496;9.098;2023-02-23T01:50:31;6.60;99.90
16625;DHT22;8426;48.496;9.098;2023-02-23T01:55:38;6.60;99.90
16625;DHT22;8426;48.496;9.098;2023-02-23T02:00:45;6.60;99.90
16625;DHT22;8426;48.496;9.098;2023-02-23T02:05:59;6.60;99.90
16625;DHT22;8426;48.496;9.098;2023-02-23T02:11:04;6.60;99.90
16625;DHT22;8426;48.496;9.098;2023-02-23T02:22:39;6.60;99.90
16625;DHT22;8426;48.496;9.098;2023-02-23T02:28:12;6.60;99.90
16625;DHT22;8426;48.496;9.098;2023-02-23T02:33:57;6.60;99.90
16625;DHT22;8426;48.496;9.098;2023-02-23T02:39:10;6.60;99.90
16625;DHT22;8426;48.496;9.098;2023-02-23T02:44:30;6.70;99.90
16625;DHT22;8426;48.496;9.098;2023-02-23T02:49:43;6.70;99.90
16625;DHT22;8426;48.496;9.098;2023-02-23T02:54:51;6.80;99.90
16625;DHT22;8426;48.496;9.098;2023-02-23T02:59:57;6.80;99.90
16625;DHT22;8426;48.496;9.098;2023-02-23T03:05:21;6.80;99.90
16625;DHT22;8426;48.496;9.098;2023-02-23T03:10:55;6.90;99.90
16625;DHT22;8426;48.496;9.098;2023-02-23T03:16:24;6.90;99.90
16625;DHT22;8426;48.496;9.098;2023-02-23T03:21:55;6.90;99.90
16625;DHT22;8426;48.496;9.098;2023-02-23T03:27:27;6.90;99.90
16625;DHT22;8426;48.496;9.098;2023-02-23T03:32:56;6.70;99.90
16625;DHT22;8426;48.496;9.098;2023-02-23T03:38:25;6.70;99.90
16625;DHT22;8426;48.496;9.098;2023-02-23T03:43:53;6.70;99.90
16625;DHT22;8426;48.496;9.098;2023-02-23T03:49:15;6.70;99.90
16625;DHT22;8426;48.496;9.098;2023-02-23T03:54:43;6.70;99.90
16625;DHT22;8426;48.496;9.098;2023-02-23T04:00:13;6.60;99.90
16625;DHT22;8426;48.496;9.098;2023-02-23T04:05:41;6.60;99.90
16625;DHT22;8426;48.496;9.098;2023-02-23T04:11:21;6.70;99.90
16625;DHT22;8426;48.496;9.098;2023-02-23T04:16:50;6.80;99.90
16625;DHT22;8426;48.496;9.098;2023-02-23T04:22:03;6.70;99.90
16625;DHT22;8426;48.496;9.098;2023-02-23T04:27:09;6.60;99.90
16625;DHT22;8426;48.496;9.098;2023-02-23T04:32:17;6.60;99.90
16625;DHT22;8426;48.496;9.098;2023-02-23T04:37:22;6.60;99.90
16625;DHT22;8426;48.496;9.098;2023-02-23T04:42:28;6.60;99.90
16625;DHT22;8426;48.496;9.098;2023-02-23T04:47:33;6.60;99.90
16625;DHT22;8426;48.496;9.098;2023-02-23T04:52:43;6.70;99.90
16625;DHT22;8426;48.496;9.098;2023-02-23T04:57:57;6.70;99.90
16625;DHT22;8426;48.496;9.098;2023-02-23T05:03:05;6.80;99.90
16625;DHT22;8426;48.496;9.098;2023-02-23T05:08:10;6.90;99.90
16625;DHT22;8426;48.496;9.098;2023-02-23T05:13:19;7.00;99.90
16625;DHT22;8426;48.496;9.098;2023-02-23T05:18:24;7.00;99.90
16625;DHT22;8426;48.496;9.098;2023-02-23T05:23:35;7.00;99.90
16625;DHT22;8426;48.496;9.098;2023-02-23T05:28:45;7.00;99.90
16625;DHT22;8426;48.496;9.098;2023-02-23T05:33:51;7.00;99.90
16625;DHT22;8426;48.496;9.098;2023-02-23T05:39:00;6.90;99.90
16625;DHT22;8426;48.496;9.098;2023-02-23T05:44:04;6.90;99.90
16625;DHT22;8426;48.496;9.098;2023-02-23T05:49:09;6.80;99.90
16625;DHT22;8426;48.496;9.098;2023-02-23T05:54:14;6.80;99.90
16625;DHT22;8426;48.496;9.098;2023-02-23T05:59:18;6.80;99.90
16625;DHT22;8426;48.496;9.098;2023-02-23T06:04:22;6.70;99.90
16625;DHT22;8426;48.496;9.098;2023-02-23T06:09:26;6.70;99.90
16625;DHT22;8426;48.496;9.098;2023-02-23T06:14:30;6.60;99.90
16625;DHT22;8426;48.496;9.098;2023-02-23T06:19:35;6.60;99.90
16625;DHT22;8426;48.496;9.098;2023-02-23T06:24:40;6.60;99.90
16625;DHT22;8426;48.496;9.098;2023-02-23T06:29:44;6.60;99.90
16625;DHT22;8426;48.496;9.098;2023-02-23T06:34:52;6.50;99.90
16625;DHT22;8426;48.496;9.098;2023-02-23T06:39:56;6.50;99.90
16625;DHT22;8426;48.496;9.098;2023-02-23T06:44:59;6.50;99.90
16625;DHT22;8426;48.496;9.098;2023-02-23T06:50:05;6.50;99.90
16625;DHT22;8426;48.496;9.098;2023-02-23T06:55:09;6.50;99.90
16625;DHT22;8426;48.496;9.098;2023-02-23T07:00:14;6.50;99.90
16625;DHT22;8426;48.496;9.098;2023-02-23T07:05:20;6.60;99.90
16625;DHT22;8426;48.496;9.098;2023-02-23T07:10:23;6.70;99.90
16625;DHT22;8426;48.496;9.098;2023-02-23T07:15:27;6.80;99.90
16625;DHT22;8426;48.496;9.098;2023-02-23T07:20:32;6.90;99.90
16625;DHT22;8426;48.496;9.098;2023-02-23T07:25:35;7.00;99.90
16625;DHT22;8426;48.496;9.098;2023-02-23T07:30:39;7.10;99.90
16625;DHT22;8426;48.496;9.098;2023-02-23T07:35:50;7.30;99.90
16625;DHT22;8426;48.496;9.098;2023-02-23T07:40:54;7.50;99.90
16625;DHT22;8426;48.496;9.098;2023-02-23T07:46:04;7.70;99.90
16625;DHT22;8426;48.496;9.098;2023-02-23T07:51:11;7.90;99.90
16625;DHT22;8426;48.496;9.098;2023-02-23T07:56:17;8.00;99.90
16625;DHT22;8426;48.496;9.098;2023-02-23T08:01:20;8.30;99.90
16625;DHT22;8426;48.496;9.098;2023-02-23T08:06:25;8.50;99.90
16625;DHT22;8426;48.496;9.098;2023-02-23T08:11:29;8.90;99.90
16625;DHT22;8426;48.496;9.098;2023-02-23T08:16:34;9.20;99.90
16625;DHT22;8426;48.496;9.098;2023-02-23T08:21:40;9.20;99.90
16625;DHT22;8426;48.496;9.098;2023-02-23T08:26:45;9.30;99.90
16625;DHT22;8426;48.496;9.098;2023-02-23T08:31:50;9.20;99.90
16625;DHT22;8426;48.496;9.098;2023-02-23T08:36:59;9.30;99.90
16625;DHT22;8426;48.496;9.098;2023-02-23T08:42:04;9.40;99.90
16625;DHT22;8426;48.496;9.098;2023-02-23T08:47:08;9.50;99.90
16625;DHT22;8426;48.496;9.098;2023-02-23T08:52:13;9.40;99.90
16625;DHT22;8426;48.496;9.098;2023-02-23T08:57:16;9.40;99.90
16625;DHT22;8426;48.496;9.098;2023-02-23T09:02:20;9.20;99.90
16625;DHT22;8426;48.496;9.098;2023-02-23T09:07:26;9.30;99.90
16625;DHT22;8426;48.496;9.098;2023-02-23T09:12:30;9.50;99.90
16625;DHT22;8426;48.496;9.098;2023-02-23T09:17:33;9.90;99.90
16625;DHT22;8426;48.496;9.098;2023-02-23T09:22:42;10.00;99.90
16625;DHT22;8426;48.496;9.098;2023-02-23T09:27:48;10.30;99.90
16625;DHT22;8426;48.496;9.098;2023-02-23T09:32:53;10.70;99.90
16625;DHT22;8426;48.496;9.098;2023-02-23T09:37:58;11.20;99.90
16625;DHT22;8426;48.496;9.098;2023-02-23T09:43:05;11.70;99.90
16625;DHT22;8426;48.496;9.098;2023-02-23T09:48:15;12.00;99.90
16625;DHT22;8426;48.496;9.098;2023-02-23T09:53:38;12.50;99.90
16625;DHT22;8426;48.496;9.098;2023-02-23T09:58:42;13.80;99.90
16625;DHT22;8426;48.496;9.098;2023-02-23T10:03:49;16.00;99.90
16625;DHT22;8426;48.496;9.098;2023-02-23T10:09:05;16.40;99.90
16625;DHT22;8426;48.496;9.098;2023-02-23T10:19:48;15.70;99.90
16625;DHT22;8426;48.496;9.098;2023-02-23T10:24:56;14.60;99.90
16625;DHT22;8426;48.496;9.098;2023-02-23T10:30:03;14.70;99.90
16625;DHT22;8426;48.496;9.098;2023-02-23T10:35:28;14.60;99.90
16625;DHT22;8426;48.496;9.098;2023-02-23T10:40:33;14.60;99.90
16625;DHT22;8426;48.496;9.098;2023-02-23T10:45:49;14.60;99.90
16625;DHT22;8426;48.496;9.098;2023-02-23T10:50:56;14.10;99.90
16625;DHT22;8426;48.496;9.098;2023-02-23T10:56:08;13.80;99.90
16625;DHT22;8426;48.496;9.098;2023-02-23T11:01:33;13.40;99.90
16625;DHT22;8426;48.496;9.098;2023-02-23T11:06:44;14.30;99.90
16625;DHT22;8426;48.496;9.098;2023-02-23T11:11:57;14.70;99.90
16625;DHT22;8426;48.496;9.098;2023-02-23T11:17:30;14.40;99.90
16625;DHT22;8426;48.496;9.098;2023-02-23T11:22:35;14.60;99.90
16625;DHT22;8426;48.496;9.098;2023-02-23T11:27:45;14.90;99.90
16625;DHT22;8426;48.496;9.098;2023-02-23T11:32:56;14.60;99.90
16625;DHT22;8426;48.496;9.098;2023-02-23T11:38:21;14.40;99.90
16625;DHT22;8426;48.496;9.098;2023-02-23T11:43:27;14.50;99.90
16625;DHT22;8426;48.496;9.098;2023-02-23T11:48:33;14.60;99.90
16625;DHT22;8426;48.496;9.098;2023-02-23T11:59:26;15.00;99.90
16625;DHT22;8426;48.496;9.098;2023-02-23T12:04:34;15.10;99.90
16625;DHT22;8426;48.496;9.098;2023-02-23T12:09:45;15.20;99.90
16625;DHT22;8426;48.496;9.098;2023-02-23T12:14:59;15.00;99.90
16625;DHT22;8426;48.496;9.098;2023-02-23T12:20:11;14.90;99.90
16625;DHT22;8426;48.496;9.098;2023-02-23T12:25:20;14.80;99.90
16625;DHT22;8426;48.496;9.098;2023-02-23T12:30:34;14.70;99.90
16625;DHT22;8426;48.496;9.098;2023-02-23T12:35:54;14.40;99.90
16625;DHT22;8426;48.496;9.098;2023-02-23T12:41:04;14.20;99.90
16625;DHT22;8426;48.496;9.098;2023-02-23T12:46:16;14.20;99.90
16625;DHT22;8426;48.496;9.098;2023-02-23T12:51:29;14.00;99.90
16625;DHT22;8426;48.496;9.098;2023-02-23T12:56:50;14.00;99.90
16625;DHT22;8426;48.496;9.098;2023-02-23T13:01:58;13.80;99.90
16625;DHT22;8426;48.496;9.098;2023-02-23T13:07:11;13.80;99.90
16625;DHT22;8426;48.496;9.098;2023-02-23T13:12:26;13.70;99.90
16625;DHT22;8426;48.496;9.098;2023-02-23T13:17:39;13.90;99.90
16625;DHT22;8426;48.496;9.098;2023-02-23T13:22:51;13.90;99.90
16625;DHT22;8426;48.496;9.098;2023-02-23T13:28:00;13.90;99.90
16625;DHT22;8426;48.496;9.098;2023-02-23T13:33:14;13.80;99.90
16625;DHT22;8426;48.496;9.098;2023-02-23T13:38:22;13.80;99.90
16625;DHT22;8426;48.496;9.098;2023-02-23T13:43:32;13.70;99.90
16625;DHT22;8426;48.496;9.098;2023-02-23T13:48:48;13.60;99.90
16625;DHT22;8426;48.496;9.098;2023-02-23T13:54:02;13.50;99.90
16625;DHT22;8426;48.496;9.098;2023-02-23T13:59:09;13.40;99.90
16625;DHT22;8426;48.496;9.098;2023-02-23T14:04:25;13.40;99.90
16625;DHT22;8426;48.496;9.098;2023-02-23T14:09:32;13.50;99.90
16625;DHT22;8426;48.496;9.098;2023-02-23T14:14:39;13.40;99.90
16625;DHT22;8426;48.496;9.098;2023-02-23T14:20:04;13.50;99.90
16625;DHT22;8426;48.496;9.098;2023-02-23T14:30:59;13.80;99.90
16625;DHT22;8426;48.496;9.098;2023-02-23T14:36:40;13.80;99.90
16625;DHT22;8426;48.496;9.098;2023-02-23T14:41:49;13.70;99.90
16625;DHT22;8426;48.496;9.098;2023-02-23T14:46:59;13.40;99.90
16625;DHT22;8426;48.496;9.098;2023-02-23T14:52:12;13.30;99.90
16625;DHT22;8426;48.496;9.098;2023-02-23T14:57:19;13.20;99.90
16625;DHT22;8426;48.496;9.098;2023-02-23T15:02:25;13.10;99.90
16625;DHT22;8426;48.496;9.098;2023-02-23T15:07:33;13.20;99.90
16625;DHT22;8426;48.496;9.098;2023-02-23T15:12:38;13.30;99.90
16625;DHT22;8426;48.496;9.098;2023-02-23T15:17:44;13.30;99.90
16625;DHT22;8426;48.496;9.098;2023-02-23T15:22:53;13.10;99.90
16625;DHT22;8426;48.496;9.098;2023-02-23T15:28:10;13.20;99.90
16625;DHT22;8426;48.496;9.098;2023-02-23T15:33:14;13.20;99.90
16625;DHT22;8426;48.496;9.098;2023-02-23T15:38:27;13.10;99.90
16625;DHT22;8426;48.496;9.098;2023-02-23T15:43:44;13.10;99.90
16625;DHT22;8426;48.496;9.098;2023-02-23T15:48:49;13.00;99.90
16625;DHT22;8426;48.496;9.098;2023-02-23T15:53:54;12.70;99.90
16625;DHT22;8426;48.496;9.098;2023-02-23T15:59:02;12.40;99.90
16625;DHT22;8426;48.496;9.098;2023-02-23T16:04:15;12.10;99.90
16625;DHT22;8426;48.496;9.098;2023-02-23T16:09:28;11.80;99.90
16625;DHT22;8426;48.496;9.098;2023-02-23T16:14:43;11.70;99.90
16625;DHT22;8426;48.496;9.098;2023-02-23T16:19:48;11.70;99.90
16625;DHT22;8426;48.496;9.098;2023-02-23T16:24:58;11.60;99.90
16625;DHT22;8426;48.496;9.098;2023-02-23T16:30:17;11.50;99.90
16625;DHT22;8426;48.496;9.098;2023-02-23T16:35:33;11.40;99.90
16625;DHT22;8426;48.496;9.098;2023-02-23T16:40:40;11.20;99.90
16625;DHT22;8426;48.496;9.098;2023-02-23T16:45:47;11.10;99.90
16625;DHT22;8426;48.496;9.098;2023-02-23T16:50:53;11.00;99.90
16625;DHT22;8426;48.496;9.098;2023-02-23T16:55:58;10.90;99.90
16625;DHT22;8426;48.496;9.098;2023-02-23T17:01:10;10.70;99.90
16625;DHT22;8426;48.496;9.098;2023-02-23T17:06:14;10.50;99.90
16625;DHT22;8426;48.496;9.098;2023-02-23T17:11:19;10.40;99.90
16625;DHT22;8426;48.496;9.098;2023-02-23T17:16:26;10.30;99.90
16625;DHT22;8426;48.496;9.098;2023-02-23T17:21:32;10.30;99.90
16625;DHT22;8426;48.496;9.098;2023-02-23T17:26:41;10.10;99.90
16625;DHT22;8426;48.496;9.098;2023-02-23T17:31:50;10.00;99.90
16625;DHT22;8426;48.496;9.098;2023-02-23T17:36:56;9.90;99.90
16625;DHT22;8426;48.496;9.098;2023-02-23T17:42:01;9.80;99.90
16625;DHT22;8426;48.496;9.098;2023-02-23T17:47:04;9.70;99.90
16625;DHT22;8426;48.496;9.098;2023-02-23T17:52:07;9.60;99.90
16625;DHT22;8426;48.496;9.098;2023-02-23T17:57:15;9.50;99.90
16625;DHT22;8426;48.496;9.098;2023-02-23T18:02:21;9.50;99.90
16625;DHT22;8426;48.496;9.098;2023-02-23T18:07:25;9.50;99.90
16625;DHT22;8426;48.496;9.098;2023-02-23T18:12:32;9.50;99.90
16625;DHT22;8426;48.496;9.098;2023-02-23T18:17:35;9.50;99.90
16625;DHT22;8426;48.496;9.098;2023-02-23T18:22:43;9.60;99.90
16625;DHT22;8426;48.496;9.098;2023-02-23T18:27:54;9.60;99.90
16625;DHT22;8426;48.496;9.098;2023-02-23T18:33:03;9.50;99.90
16625;DHT22;8426;48.496;9.098;2023-02-23T18:38:11;9.30;99.90
16625;DHT22;8426;48.496;9.098;2023-02-23T18:43:20;9.10;99.90
16625;DHT22;8426;48.496;9.098;2023-02-23T18:48:23;8.80;99.90
16625;DHT22;8426;48.496;9.098;2023-02-23T18:53:26;8.50;99.90
16625;DHT22;8426;48.496;9.098;2023-02-23T18:58:39;8.30;99.90
16625;DHT22;8426;48.496;9.098;2023-02-23T19:03:53;8.20;99.90
16625;DHT22;8426;48.496;9.098;2023-02-23T19:09:00;7.90;99.90
16625;DHT22;8426;48.496;9.098;2023-02-23T19:14:14;7.90;99.90
16625;DHT22;8426;48.496;9.098;2023-02-23T19:19:19;8.00;99.90
16625;DHT22;8426;48.496;9.098;2023-02-23T19:24:22;8.10;99.90
16625;DHT22;8426;48.496;9.098;2023-02-23T19:29:27;8.10;99.90
16625;DHT22;8426;48.496;9.098;2023-02-23T19:34:30;8.10;99.90
16625;DHT22;8426;48.496;9.098;2023-02-23T19:39:34;8.20;99.90
16625;DHT22;8426;48.496;9.098;2023-02-23T19:44:42;8.10;99.90
16625;DHT22;8426;48.496;9.098;2023-02-23T19:49:46;8.00;99.90
16625;DHT22;8426;48.496;9.098;2023-02-23T19:54:51;7.80;99.90
16625;DHT22;8426;48.496;9.098;2023-02-23T19:59:58;7.30;99.90
16625;DHT22;8426;48.496;9.098;2023-02-23T20:05:01;6.80;99.90
16625;DHT22;8426;48.496;9.098;2023-02-23T20:10:05;6.50;99.90
16625;DHT22;8426;48.496;9.098;2023-02-23T20:15:17;6.40;99.90
16625;DHT22;8426;48.496;9.098;2023-02-23T20:20:26;6.30;99.90
16625;DHT22;8426;48.496;9.098;2023-02-23T20:25:30;6.00;99.90
16625;DHT22;8426;48.496;9.098;2023-02-23T20:30:34;6.10;99.90
16625;DHT22;8426;48.496;9.098;2023-02-23T20:35:38;6.20;99.90
16625;DHT22;8426;48.496;9.098;2023-02-23T20:40:42;6.00;99.90
16625;DHT22;8426;48.496;9.098;2023-02-23T20:45:47;5.80;99.90
16625;DHT22;8426;48.496;9.098;2023-02-23T20:50:53;5.60;99.90
16625;DHT22;8426;48.496;9.098;2023-02-23T20:55:56;5.40;99.90
16625;DHT22;8426;48.496;9.098;2023-02-23T21:01:01;5.30;99.90
16625;DHT22;8426;48.496;9.098;2023-02-23T21:06:07;5.10;99.90
16625;DHT22;8426;48.496;9.098;2023-02-23T21:11:10;4.90;99.90
16625;DHT22;8426;48.496;9.098;2023-02-23T21:16:17;4.80;99.90
16625;DHT22;8426;48.496;9.098;2023-02-23T21:21:21;4.60;99.90
16625;DHT22;8426;48.496;9.098;2023-02-23T21:26:25;4.60;99.90
16625;DHT22;8426;48.496;9.098;2023-02-23T21:31:32;5.00;99.90
16625;DHT22;8426;48.496;9.098;2023-02-23T21:36:37;5.30;99.90
16625;DHT22;8426;48.496;9.098;2023-02-23T21:41:40;5.30;99.90
16625;DHT22;8426;48.496;9.098;2023-02-23T21:46:45;5.40;99.90
16625;DHT22;8426;48.496;9.098;2023-02-23T21:51:48;5.50;99.90
16625;DHT22;8426;48.496;9.098;2023-02-23T21:56:54;5.30;99.90
16625;DHT22;8426;48.496;9.098;2023-02-23T22:01:58;5.20;99.90
16625;DHT22;8426;48.496;9.098;2023-02-23T22:07:03;5.10;99.90
16625;DHT22;8426;48.496;9.098;2023-02-23T22:12:09;5.00;99.90
16625;DHT22;8426;48.496;9.098;2023-02-23T22:17:14;5.10;99.90
16625;DHT22;8426;48.496;9.098;2023-02-23T22:22:20;5.10;99.90
16625;DHT22;8426;48.496;9.098;2023-02-23T22:27:23;5.10;99.90
16625;DHT22;8426;48.496;9.098;2023-02-23T22:32:28;5.00;99.90
16625;DHT22;8426;48.496;9.098;2023-02-23T22:37:35;5.00;99.90
16625;DHT22;8426;48.496;9.098;2023-02-23T22:42:39;5.10;99.90
16625;DHT22;8426;48.496;9.098;2023-02-23T22:47:45;5.10;99.90
16625;DHT22;8426;48.496;9.098;2023-02-23T22:52:48;4.90;99.90
16625;DHT22;8426;48.496;9.098;2023-02-23T22:57:52;4.80;99.90
16625;DHT22;8426;48.496;9.098;2023-02-23T23:02:57;4.60;99.90
16625;DHT22;8426;48.496;9.098;2023-02-23T23:08:01;4.50;99.90
16625;DHT22;8426;48.496;9.098;2023-02-23T23:13:04;4.50;99.90
16625;DHT22;8426;48.496;9.098;2023-02-23T23:18:09;4.70;99.90
16625;DHT22;8426;48.496;9.098;2023-02-23T23:23:15;4.90;99.90
16625;DHT22;8426;48.496;9.098;2023-02-23T23:28:19;5.00;99.90
16625;DHT22;8426;48.496;9.098;2023-02-23T23:33:26;5.10;99.90
16625;DHT22;8426;48.496;9.098;2023-02-23T23:38:31;5.20;99.90
16625;DHT22;8426;48.496;9.098;2023-02-23T23:43:36;5.20;99.90
16625;DHT22;8426;48.496;9.098;2023-02-23T23:48:41;5.30;99.90
16625;DHT22;8426;48.496;9.098;2023-02-23T23:53:45;5.40;99.90
16625;DHT22;8426;48.496;9.098;2023-02-23T23:58:50;5.40;99.90
